sensor_id;sensor_type;location;lat;lon;timestamp;temperature;humidity
70947;DHT22;58605;48.700;8.760;2023-02-16T00:01:16;-0.40;99.90
70947;DHT22;58605;48.700;8.760;2023-02-16T00:03:43;-0.40;99.90
70947;DHT22;58605;48.700;8.760;2023-02-16T00:06:11;-0.50;99.90
70947;DHT22;58605;48.700;8.760;2023-02-16T00:08:41;-0.40;99.90
70947;DHT22;58605;48.700;8.760;2023-02-16T00:11:12;-0.40;99.90
70947;DHT22;58605;48.700;8.760;2023-02-16T00:13:57;-0.10;99.90
70947;DHT22;58605;48.700;8.760;2023-02-16T00:16:24;0.00;99.90
70947;DHT22;58605;48.700;8.760;2023-02-16T00:18:51;0.10;99.90
70947;DHT22;58605;48.700;8.760;2023-02-16T00:21:19;0.20;99.90
70947;DHT22;58605;48.700;8.760;2023-02-16T00:23:45;0.20;99.90
70947;DHT22;58605;48.700;8.760;2023-02-16T00:26:14;0.20;99.90
70947;DHT22;58605;48.700;8.760;2023-02-16T00:28:42;0.10;99.90
70947;DHT22;58605;48.700;8.760;2023-02-16T00:31:14;-0.10;99.90
70947;DHT22;58605;48.700;8.760;2023-02-16T00:33:41;-0.30;99.90
70947;DHT22;58605;48.700;8.760;2023-02-16T00:36:07;-0.60;99.90
70947;DHT22;58605;48.700;8.760;2023-02-16T00:38:35;-0.60;99.90
70947;DHT22;58605;48.700;8.760;2023-02-16T00:41:01;-0.60;99.90
70947;DHT22;58605;48.700;8.760;2023-02-16T00:43:28;-0.50;99.90
70947;DHT22;58605;48.700;8.760;2023-02-16T00:45:55;-0.40;99.90
70947;DHT22;58605;48.700;8.760;2023-02-16T00:48:21;-0.40;99.90
70947;DHT22;58605;48.700;8.760;2023-02-16T00:50:47;-0.30;99.90
70947;DHT22;58605;48.700;8.760;2023-02-16T00:53:13;-0.40;99.90
70947;DHT22;58605;48.700;8.760;2023-02-16T00:55:42;-0.50;99.90
70947;DHT22;58605;48.700;8.760;2023-02-16T00:58:14;-0.60;99.90
70947;DHT22;58605;48.700;8.760;2023-02-16T01:00:42;-0.80;99.90
70947;DHT22;58605;48.700;8.760;2023-02-16T01:03:15;-0.80;99.90
70947;DHT22;58605;48.700;8.760;2023-02-16T01:05:41;-0.70;99.90
70947;DHT22;58605;48.700;8.760;2023-02-16T01:08:09;-0.60;99.90
70947;DHT22;58605;48.700;8.760;2023-02-16T01:10:55;-0.70;99.90
70947;DHT22;58605;48.700;8.760;2023-02-16T01:13:40;-0.70;99.90
70947;DHT22;58605;48.700;8.760;2023-02-16T01:16:13;-0.50;99.90
70947;DHT22;58605;48.700;8.760;2023-02-16T01:18:39;-0.40;99.90
70947;DHT22;58605;48.700;8.760;2023-02-16T01:21:05;-0.40;99.90
70947;DHT22;58605;48.700;8.760;2023-02-16T01:23:31;-0.30;99.90
70947;DHT22;58605;48.700;8.760;2023-02-16T01:25:58;-0.50;99.90
70947;DHT22;58605;48.700;8.760;2023-02-16T01:28:25;-0.60;99.90
70947;DHT22;58605;48.700;8.760;2023-02-16T01:30:52;-0.60;99.90
70947;DHT22;58605;48.700;8.760;2023-02-16T01:33:18;-0.60;99.90
70947;DHT22;58605;48.700;8.760;2023-02-16T01:35:44;-0.70;99.90
70947;DHT22;58605;48.700;8.760;2023-02-16T01:38:15;-0.80;99.90
70947;DHT22;58605;48.700;8.760;2023-02-16T01:40:45;-0.90;99.90
70947;DHT22;58605;48.700;8.760;2023-02-16T01:43:19;-0.80;99.90
70947;DHT22;58605;48.700;8.760;2023-02-16T01:45:47;-0.90;99.90
70947;DHT22;58605;48.700;8.760;2023-02-16T01:48:21;-0.90;99.90
70947;DHT22;58605;48.700;8.760;2023-02-16T01:50:55;-0.90;99.90
70947;DHT22;58605;48.700;8.760;2023-02-16T01:53:27;-0.80;99.90
70947;DHT22;58605;48.700;8.760;2023-02-16T01:55:59;-0.80;99.90
70947;DHT22;58605;48.700;8.760;2023-02-16T01:58:33;-0.80;99.90
70947;DHT22;58605;48.700;8.760;2023-02-16T02:01:36;-0.80;99.90
70947;DHT22;58605;48.700;8.760;2023-02-16T02:04:42;-0.70;99.90
70947;DHT22;58605;48.700;8.760;2023-02-16T02:07:32;-1.00;99.90
70947;DHT22;58605;48.700;8.760;2023-02-16T02:10:06;-1.10;99.90
70947;DHT22;58605;48.700;8.760;2023-02-16T02:12:42;-1.10;99.90
70947;DHT22;58605;48.700;8.760;2023-02-16T02:15:12;-1.20;99.90
70947;DHT22;58605;48.700;8.760;2023-02-16T02:17:40;-1.10;99.90
70947;DHT22;58605;48.700;8.760;2023-02-16T02:20:10;-1.10;99.90
70947;DHT22;58605;48.700;8.760;2023-02-16T02:29:34;-0.60;99.90
70947;DHT22;58605;48.700;8.760;2023-02-16T02:32:08;-0.90;99.90
70947;DHT22;58605;48.700;8.760;2023-02-16T02:34:57;-1.00;99.90
70947;DHT22;58605;48.700;8.760;2023-02-16T02:37:30;-1.10;99.90
70947;DHT22;58605;48.700;8.760;2023-02-16T02:40:04;-1.20;99.90
70947;DHT22;58605;48.700;8.760;2023-02-16T02:42:34;-1.30;99.90
70947;DHT22;58605;48.700;8.760;2023-02-16T02:45:08;-1.20;99.90
70947;DHT22;58605;48.700;8.760;2023-02-16T02:47:41;-1.10;99.90
70947;DHT22;58605;48.700;8.760;2023-02-16T02:50:42;-1.10;99.90
70947;DHT22;58605;48.700;8.760;2023-02-16T02:53:28;-1.10;99.90
70947;DHT22;58605;48.700;8.760;2023-02-16T02:55:57;-0.90;99.90
70947;DHT22;58605;48.700;8.760;2023-02-16T02:58:42;-0.90;99.90
70947;DHT22;58605;48.700;8.760;2023-02-16T03:01:41;-0.90;99.90
70947;DHT22;58605;48.700;8.760;2023-02-16T03:04:10;-1.00;99.90
70947;DHT22;58605;48.700;8.760;2023-02-16T03:06:40;-1.20;99.90
70947;DHT22;58605;48.700;8.760;2023-02-16T03:09:09;-1.20;99.90
70947;DHT22;58605;48.700;8.760;2023-02-16T03:11:37;-1.10;99.90
70947;DHT22;58605;48.700;8.760;2023-02-16T03:14:24;-0.90;99.90
70947;DHT22;58605;48.700;8.760;2023-02-16T03:16:56;-0.70;99.90
70947;DHT22;58605;48.700;8.760;2023-02-16T03:19:42;-0.50;99.90
70947;DHT22;58605;48.700;8.760;2023-02-16T03:22:28;-0.60;99.90
70947;DHT22;58605;48.700;8.760;2023-02-16T03:25:13;-0.60;99.90
70947;DHT22;58605;48.700;8.760;2023-02-16T03:27:59;-0.50;99.90
70947;DHT22;58605;48.700;8.760;2023-02-16T03:30:46;-0.70;99.90
70947;DHT22;58605;48.700;8.760;2023-02-16T03:33:16;-0.90;99.90
70947;DHT22;58605;48.700;8.760;2023-02-16T03:35:43;-1.10;99.90
70947;DHT22;58605;48.700;8.760;2023-02-16T03:38:09;-1.20;99.90
70947;DHT22;58605;48.700;8.760;2023-02-16T03:40:37;-1.30;99.90
70947;DHT22;58605;48.700;8.760;2023-02-16T03:43:06;-1.20;99.90
70947;DHT22;58605;48.700;8.760;2023-02-16T03:45:34;-0.90;99.90
70947;DHT22;58605;48.700;8.760;2023-02-16T03:48:01;-0.80;99.90
70947;DHT22;58605;48.700;8.760;2023-02-16T03:50:29;-0.80;99.90
70947;DHT22;58605;48.700;8.760;2023-02-16T03:52:55;-1.10;99.90
70947;DHT22;58605;48.700;8.760;2023-02-16T03:55:31;-1.20;99.90
70947;DHT22;58605;48.700;8.760;2023-02-16T03:57:57;-1.50;99.90
70947;DHT22;58605;48.700;8.760;2023-02-16T04:00:24;-1.50;99.90
70947;DHT22;58605;48.700;8.760;2023-02-16T04:02:50;-1.40;99.90
70947;DHT22;58605;48.700;8.760;2023-02-16T04:05:16;-1.30;99.90
70947;DHT22;58605;48.700;8.760;2023-02-16T04:07:43;-1.40;99.90
70947;DHT22;58605;48.700;8.760;2023-02-16T04:10:09;-1.30;99.90
70947;DHT22;58605;48.700;8.760;2023-02-16T04:12:35;-1.20;99.90
70947;DHT22;58605;48.700;8.760;2023-02-16T04:15:02;-1.30;99.90
70947;DHT22;58605;48.700;8.760;2023-02-16T04:17:28;-1.40;99.90
70947;DHT22;58605;48.700;8.760;2023-02-16T04:19:54;-1.30;99.90
70947;DHT22;58605;48.700;8.760;2023-02-16T04:22:20;-1.30;99.90
70947;DHT22;58605;48.700;8.760;2023-02-16T04:24:47;-1.40;99.90
70947;DHT22;58605;48.700;8.760;2023-02-16T04:27:13;-1.50;99.90
70947;DHT22;58605;48.700;8.760;2023-02-16T04:29:39;-1.40;99.90
70947;DHT22;58605;48.700;8.760;2023-02-16T04:32:05;-1.40;99.90
70947;DHT22;58605;48.700;8.760;2023-02-16T04:34:31;-1.50;99.90
70947;DHT22;58605;48.700;8.760;2023-02-16T04:36:57;-1.60;99.90
70947;DHT22;58605;48.700;8.760;2023-02-16T04:39:23;-1.70;99.90
70947;DHT22;58605;48.700;8.760;2023-02-16T04:41:51;-1.80;99.90
70947;DHT22;58605;48.700;8.760;2023-02-16T04:44:17;-1.70;99.90
70947;DHT22;58605;48.700;8.760;2023-02-16T04:46:43;-1.60;99.90
70947;DHT22;58605;48.700;8.760;2023-02-16T04:49:09;-1.60;99.90
70947;DHT22;58605;48.700;8.760;2023-02-16T04:51:35;-1.50;99.90
70947;DHT22;58605;48.700;8.760;2023-02-16T04:54:01;-1.50;99.90
70947;DHT22;58605;48.700;8.760;2023-02-16T04:56:27;-1.60;99.90
70947;DHT22;58605;48.700;8.760;2023-02-16T04:58:54;-1.60;99.90
70947;DHT22;58605;48.700;8.760;2023-02-16T05:01:22;-1.60;99.90
70947;DHT22;58605;48.700;8.760;2023-02-16T05:03:48;-1.60;99.90
70947;DHT22;58605;48.700;8.760;2023-02-16T05:06:14;-1.60;99.90
70947;DHT22;58605;48.700;8.760;2023-02-16T05:08:40;-1.50;99.90
70947;DHT22;58605;48.700;8.760;2023-02-16T05:11:06;-1.40;99.90
70947;DHT22;58605;48.700;8.760;2023-02-16T05:13:51;-1.40;99.90
70947;DHT22;58605;48.700;8.760;2023-02-16T05:16:37;-1.60;99.90
70947;DHT22;58605;48.700;8.760;2023-02-16T05:19:02;-1.60;99.90
70947;DHT22;58605;48.700;8.760;2023-02-16T05:21:28;-1.50;99.90
70947;DHT22;58605;48.700;8.760;2023-02-16T05:23:57;-1.50;99.90
70947;DHT22;58605;48.700;8.760;2023-02-16T05:26:24;-1.70;99.90
70947;DHT22;58605;48.700;8.760;2023-02-16T05:28:50;-1.70;99.90
70947;DHT22;58605;48.700;8.760;2023-02-16T05:31:16;-1.80;99.90
70947;DHT22;58605;48.700;8.760;2023-02-16T05:33:43;-1.80;99.90
70947;DHT22;58605;48.700;8.760;2023-02-16T05:36:09;-1.70;99.90
70947;DHT22;58605;48.700;8.760;2023-02-16T05:38:35;-1.80;99.90
70947;DHT22;58605;48.700;8.760;2023-02-16T05:41:01;-1.70;99.90
70947;DHT22;58605;48.700;8.760;2023-02-16T05:43:28;-1.70;99.90
70947;DHT22;58605;48.700;8.760;2023-02-16T05:45:54;-1.80;99.90
70947;DHT22;58605;48.700;8.760;2023-02-16T05:48:20;-1.80;99.90
70947;DHT22;58605;48.700;8.760;2023-02-16T05:50:47;-1.70;99.90
70947;DHT22;58605;48.700;8.760;2023-02-16T05:53:13;-1.60;99.90
70947;DHT22;58605;48.700;8.760;2023-02-16T05:55:39;-1.60;99.90
70947;DHT22;58605;48.700;8.760;2023-02-16T05:58:06;-1.50;99.90
70947;DHT22;58605;48.700;8.760;2023-02-16T06:00:32;-1.40;99.90
70947;DHT22;58605;48.700;8.760;2023-02-16T06:02:58;-1.40;99.90
70947;DHT22;58605;48.700;8.760;2023-02-16T06:05:24;-1.40;99.90
70947;DHT22;58605;48.700;8.760;2023-02-16T06:07:51;-1.40;99.90
70947;DHT22;58605;48.700;8.760;2023-02-16T06:10:18;-1.50;99.90
70947;DHT22;58605;48.700;8.760;2023-02-16T06:12:44;-1.50;99.90
70947;DHT22;58605;48.700;8.760;2023-02-16T06:15:10;-1.50;99.90
70947;DHT22;58605;48.700;8.760;2023-02-16T06:17:36;-1.50;99.90
70947;DHT22;58605;48.700;8.760;2023-02-16T06:20:03;-1.50;99.90
70947;DHT22;58605;48.700;8.760;2023-02-16T06:22:29;-1.50;99.90
70947;DHT22;58605;48.700;8.760;2023-02-16T06:24:57;-1.40;99.90
70947;DHT22;58605;48.700;8.760;2023-02-16T06:27:23;-1.30;99.90
70947;DHT22;58605;48.700;8.760;2023-02-16T06:29:49;-1.30;99.90
70947;DHT22;58605;48.700;8.760;2023-02-16T06:32:15;-1.30;99.90
70947;DHT22;58605;48.700;8.760;2023-02-16T06:34:42;-1.30;99.90
70947;DHT22;58605;48.700;8.760;2023-02-16T06:37:08;-1.30;99.90
70947;DHT22;58605;48.700;8.760;2023-02-16T06:39:34;-1.30;99.90
70947;DHT22;58605;48.700;8.760;2023-02-16T06:42:02;-1.30;99.90
70947;DHT22;58605;48.700;8.760;2023-02-16T06:44:28;-1.30;99.90
70947;DHT22;58605;48.700;8.760;2023-02-16T06:46:57;-1.40;99.90
70947;DHT22;58605;48.700;8.760;2023-02-16T06:49:23;-1.40;99.90
70947;DHT22;58605;48.700;8.760;2023-02-16T06:51:50;-1.40;99.90
70947;DHT22;58605;48.700;8.760;2023-02-16T06:54:16;-1.40;99.90
70947;DHT22;58605;48.700;8.760;2023-02-16T06:56:43;-1.30;99.90
70947;DHT22;58605;48.700;8.760;2023-02-16T06:59:11;-1.30;99.90
70947;DHT22;58605;48.700;8.760;2023-02-16T07:01:37;-1.30;99.90
70947;DHT22;58605;48.700;8.760;2023-02-16T07:04:03;-1.20;99.90
70947;DHT22;58605;48.700;8.760;2023-02-16T07:06:29;-1.20;99.90
70947;DHT22;58605;48.700;8.760;2023-02-16T07:08:55;-1.20;99.90
70947;DHT22;58605;48.700;8.760;2023-02-16T07:11:22;-1.20;99.90
70947;DHT22;58605;48.700;8.760;2023-02-16T07:13:48;-1.30;99.90
70947;DHT22;58605;48.700;8.760;2023-02-16T07:16:15;-1.30;99.90
70947;DHT22;58605;48.700;8.760;2023-02-16T07:18:41;-1.30;99.90
70947;DHT22;58605;48.700;8.760;2023-02-16T07:21:08;-1.30;99.90
70947;DHT22;58605;48.700;8.760;2023-02-16T07:23:34;-1.30;99.90
70947;DHT22;58605;48.700;8.760;2023-02-16T07:26:00;-1.30;99.90
70947;DHT22;58605;48.700;8.760;2023-02-16T07:28:26;-1.20;99.90
70947;DHT22;58605;48.700;8.760;2023-02-16T07:30:52;-1.10;99.90
70947;DHT22;58605;48.700;8.760;2023-02-16T07:33:19;-1.00;99.90
70947;DHT22;58605;48.700;8.760;2023-02-16T07:35:45;-1.00;99.90
70947;DHT22;58605;48.700;8.760;2023-02-16T07:38:12;-1.00;99.90
70947;DHT22;58605;48.700;8.760;2023-02-16T07:40:38;-0.90;99.90
70947;DHT22;58605;48.700;8.760;2023-02-16T07:43:04;-0.90;99.90
70947;DHT22;58605;48.700;8.760;2023-02-16T07:45:31;-0.90;99.90
70947;DHT22;58605;48.700;8.760;2023-02-16T07:47:57;-0.80;99.90
70947;DHT22;58605;48.700;8.760;2023-02-16T07:50:25;-0.80;99.90
70947;DHT22;58605;48.700;8.760;2023-02-16T07:52:51;-0.70;99.90
70947;DHT22;58605;48.700;8.760;2023-02-16T07:55:17;-0.70;99.90
70947;DHT22;58605;48.700;8.760;2023-02-16T07:57:43;-0.60;99.90
70947;DHT22;58605;48.700;8.760;2023-02-16T08:00:10;-0.40;99.90
70947;DHT22;58605;48.700;8.760;2023-02-16T08:02:36;-0.30;99.90
70947;DHT22;58605;48.700;8.760;2023-02-16T08:05:03;-0.10;99.90
70947;DHT22;58605;48.700;8.760;2023-02-16T08:07:31;0.00;99.90
70947;DHT22;58605;48.700;8.760;2023-02-16T08:09:57;0.20;99.90
70947;DHT22;58605;48.700;8.760;2023-02-16T08:12:24;0.30;99.90
70947;DHT22;58605;48.700;8.760;2023-02-16T08:14:50;0.40;99.90
70947;DHT22;58605;48.700;8.760;2023-02-16T08:17:16;0.50;99.90
70947;DHT22;58605;48.700;8.760;2023-02-16T08:19:42;0.50;99.90
70947;DHT22;58605;48.700;8.760;2023-02-16T08:22:08;0.50;99.90
70947;DHT22;58605;48.700;8.760;2023-02-16T08:24:38;0.50;99.90
70947;DHT22;58605;48.700;8.760;2023-02-16T08:27:11;0.60;99.90
70947;DHT22;58605;48.700;8.760;2023-02-16T08:29:37;0.60;99.90
70947;DHT22;58605;48.700;8.760;2023-02-16T08:32:04;0.70;99.90
70947;DHT22;58605;48.700;8.760;2023-02-16T08:34:33;0.80;99.90
70947;DHT22;58605;48.700;8.760;2023-02-16T08:36:59;0.90;99.90
70947;DHT22;58605;48.700;8.760;2023-02-16T08:39:27;1.00;99.90
70947;DHT22;58605;48.700;8.760;2023-02-16T08:41:56;1.10;99.90
70947;DHT22;58605;48.700;8.760;2023-02-16T08:44:23;1.20;99.90
70947;DHT22;58605;48.700;8.760;2023-02-16T08:46:52;1.30;99.90
70947;DHT22;58605;48.700;8.760;2023-02-16T08:49:20;1.50;99.90
70947;DHT22;58605;48.700;8.760;2023-02-16T08:51:48;1.70;99.90
70947;DHT22;58605;48.700;8.760;2023-02-16T08:54:17;1.80;99.90
70947;DHT22;58605;48.700;8.760;2023-02-16T08:56:43;2.00;99.90
70947;DHT22;58605;48.700;8.760;2023-02-16T08:59:14;2.20;99.90
70947;DHT22;58605;48.700;8.760;2023-02-16T09:01:40;2.40;99.90
70947;DHT22;58605;48.700;8.760;2023-02-16T09:04:06;2.60;99.90
70947;DHT22;58605;48.700;8.760;2023-02-16T09:06:40;2.70;99.90
70947;DHT22;58605;48.700;8.760;2023-02-16T09:09:14;3.00;99.90
70947;DHT22;58605;48.700;8.760;2023-02-16T09:11:40;3.10;99.90
70947;DHT22;58605;48.700;8.760;2023-02-16T09:14:06;3.20;99.90
70947;DHT22;58605;48.700;8.760;2023-02-16T09:16:35;3.40;99.90
70947;DHT22;58605;48.700;8.760;2023-02-16T09:19:04;3.40;99.90
70947;DHT22;58605;48.700;8.760;2023-02-16T09:21:30;3.50;99.90
70947;DHT22;58605;48.700;8.760;2023-02-16T09:24:00;3.50;99.90
70947;DHT22;58605;48.700;8.760;2023-02-16T09:26:31;3.70;99.90
70947;DHT22;58605;48.700;8.760;2023-02-16T09:28:57;3.60;99.00
70947;DHT22;58605;48.700;8.760;2023-02-16T09:31:28;3.80;99.90
70947;DHT22;58605;48.700;8.760;2023-02-16T09:33:59;3.80;97.00
70947;DHT22;58605;48.700;8.760;2023-02-16T09:36:32;4.20;99.90
70947;DHT22;58605;48.700;8.760;2023-02-16T09:38:59;4.40;96.80
70947;DHT22;58605;48.700;8.760;2023-02-16T09:41:31;4.10;93.20
70947;DHT22;58605;48.700;8.760;2023-02-16T09:44:10;3.90;92.20
70947;DHT22;58605;48.700;8.760;2023-02-16T09:46:38;3.80;92.10
70947;DHT22;58605;48.700;8.760;2023-02-16T09:49:11;3.70;92.10
70947;DHT22;58605;48.700;8.760;2023-02-16T09:51:43;3.60;92.10
70947;DHT22;58605;48.700;8.760;2023-02-16T09:54:21;3.50;92.20
70947;DHT22;58605;48.700;8.760;2023-02-16T09:56:56;3.40;92.30
70947;DHT22;58605;48.700;8.760;2023-02-16T09:59:34;3.30;92.50
70947;DHT22;58605;48.700;8.760;2023-02-16T10:02:18;3.20;93.60
70947;DHT22;58605;48.700;8.760;2023-02-16T10:05:02;3.20;94.50
70947;DHT22;58605;48.700;8.760;2023-02-16T10:07:42;3.10;95.30
70947;DHT22;58605;48.700;8.760;2023-02-16T10:10:14;3.20;96.50
70947;DHT22;58605;48.700;8.760;2023-02-16T10:12:51;3.10;97.50
70947;DHT22;58605;48.700;8.760;2023-02-16T10:15:22;3.20;98.60
70947;DHT22;58605;48.700;8.760;2023-02-16T10:17:54;3.10;99.90
70947;DHT22;58605;48.700;8.760;2023-02-16T10:20:26;3.30;99.90
70947;DHT22;58605;48.700;8.760;2023-02-16T10:22:59;3.30;99.90
70947;DHT22;58605;48.700;8.760;2023-02-16T10:25:33;3.30;99.90
70947;DHT22;58605;48.700;8.760;2023-02-16T10:28:06;3.30;99.90
70947;DHT22;58605;48.700;8.760;2023-02-16T10:30:37;3.40;99.90
70947;DHT22;58605;48.700;8.760;2023-02-16T10:33:15;3.30;99.90
70947;DHT22;58605;48.700;8.760;2023-02-16T10:35:45;3.40;99.90
70947;DHT22;58605;48.700;8.760;2023-02-16T10:38:15;3.40;99.90
70947;DHT22;58605;48.700;8.760;2023-02-16T10:40:51;3.50;99.90
70947;DHT22;58605;48.700;8.760;2023-02-16T10:43:24;3.50;99.90
70947;DHT22;58605;48.700;8.760;2023-02-16T10:45:56;3.70;99.90
70947;DHT22;58605;48.700;8.760;2023-02-16T10:48:26;3.60;99.90
70947;DHT22;58605;48.700;8.760;2023-02-16T10:50:57;3.70;99.90
70947;DHT22;58605;48.700;8.760;2023-02-16T10:53:35;3.90;99.90
70947;DHT22;58605;48.700;8.760;2023-02-16T10:56:34;3.90;99.90
70947;DHT22;58605;48.700;8.760;2023-02-16T10:59:05;3.90;99.90
70947;DHT22;58605;48.700;8.760;2023-02-16T11:01:36;3.90;99.90
70947;DHT22;58605;48.700;8.760;2023-02-16T11:04:03;4.00;99.90
70947;DHT22;58605;48.700;8.760;2023-02-16T11:06:30;4.00;99.90
70947;DHT22;58605;48.700;8.760;2023-02-16T11:08:58;4.00;99.90
70947;DHT22;58605;48.700;8.760;2023-02-16T11:11:26;4.10;99.90
70947;DHT22;58605;48.700;8.760;2023-02-16T11:13:59;4.10;99.90
70947;DHT22;58605;48.700;8.760;2023-02-16T11:16:26;4.10;99.90
70947;DHT22;58605;48.700;8.760;2023-02-16T11:18:56;4.10;99.90
70947;DHT22;58605;48.700;8.760;2023-02-16T11:21:44;4.10;99.90
70947;DHT22;58605;48.700;8.760;2023-02-16T11:24:12;4.10;99.90
70947;DHT22;58605;48.700;8.760;2023-02-16T11:26:38;4.10;99.90
70947;DHT22;58605;48.700;8.760;2023-02-16T11:29:19;4.20;99.90
70947;DHT22;58605;48.700;8.760;2023-02-16T11:31:45;4.10;99.90
70947;DHT22;58605;48.700;8.760;2023-02-16T11:34:14;4.10;99.90
70947;DHT22;58605;48.700;8.760;2023-02-16T11:36:48;4.00;99.90
70947;DHT22;58605;48.700;8.760;2023-02-16T11:39:18;4.10;99.90
70947;DHT22;58605;48.700;8.760;2023-02-16T11:41:48;4.00;99.90
70947;DHT22;58605;48.700;8.760;2023-02-16T11:44:24;4.00;99.90
70947;DHT22;58605;48.700;8.760;2023-02-16T11:46:52;3.90;99.90
70947;DHT22;58605;48.700;8.760;2023-02-16T11:49:26;4.00;99.90
70947;DHT22;58605;48.700;8.760;2023-02-16T11:51:54;3.90;99.90
70947;DHT22;58605;48.700;8.760;2023-02-16T11:54:20;4.00;99.90
70947;DHT22;58605;48.700;8.760;2023-02-16T11:57:01;4.00;99.90
70947;DHT22;58605;48.700;8.760;2023-02-16T11:59:33;4.00;99.90
70947;DHT22;58605;48.700;8.760;2023-02-16T12:02:23;4.20;99.90
70947;DHT22;58605;48.700;8.760;2023-02-16T12:05:02;4.20;99.90
70947;DHT22;58605;48.700;8.760;2023-02-16T12:07:39;4.30;99.90
70947;DHT22;58605;48.700;8.760;2023-02-16T12:10:12;4.20;99.90
70947;DHT22;58605;48.700;8.760;2023-02-16T12:12:50;4.30;99.90
70947;DHT22;58605;48.700;8.760;2023-02-16T12:15:22;4.30;99.90
70947;DHT22;58605;48.700;8.760;2023-02-16T12:18:03;4.40;99.90
70947;DHT22;58605;48.700;8.760;2023-02-16T12:20:40;4.30;99.90
70947;DHT22;58605;48.700;8.760;2023-02-16T12:23:27;4.30;99.90
70947;DHT22;58605;48.700;8.760;2023-02-16T12:28:47;4.40;99.90
70947;DHT22;58605;48.700;8.760;2023-02-16T12:31:20;4.40;99.90
70947;DHT22;58605;48.700;8.760;2023-02-16T12:33:52;4.40;99.90
70947;DHT22;58605;48.700;8.760;2023-02-16T12:36:45;4.40;99.90
70947;DHT22;58605;48.700;8.760;2023-02-16T12:39:20;4.50;99.90
70947;DHT22;58605;48.700;8.760;2023-02-16T12:42:03;4.50;99.90
70947;DHT22;58605;48.700;8.760;2023-02-16T12:44:36;4.50;99.90
70947;DHT22;58605;48.700;8.760;2023-02-16T12:47:05;4.50;99.90
70947;DHT22;58605;48.700;8.760;2023-02-16T12:49:46;4.50;99.90
70947;DHT22;58605;48.700;8.760;2023-02-16T12:52:26;4.40;99.90
70947;DHT22;58605;48.700;8.760;2023-02-16T12:55:01;4.40;99.90
70947;DHT22;58605;48.700;8.760;2023-02-16T12:57:31;4.50;99.90
70947;DHT22;58605;48.700;8.760;2023-02-16T13:00:03;4.60;99.90
70947;DHT22;58605;48.700;8.760;2023-02-16T13:02:34;4.70;99.90
70947;DHT22;58605;48.700;8.760;2023-02-16T13:05:05;4.80;99.90
70947;DHT22;58605;48.700;8.760;2023-02-16T13:07:41;4.70;99.90
70947;DHT22;58605;48.700;8.760;2023-02-16T13:10:22;4.70;99.90
70947;DHT22;58605;48.700;8.760;2023-02-16T13:12:50;4.60;99.90
70947;DHT22;58605;48.700;8.760;2023-02-16T13:15:21;4.40;99.90
70947;DHT22;58605;48.700;8.760;2023-02-16T13:17:50;4.50;99.90
70947;DHT22;58605;48.700;8.760;2023-02-16T13:20:19;4.50;99.90
70947;DHT22;58605;48.700;8.760;2023-02-16T13:23:23;4.60;99.90
70947;DHT22;58605;48.700;8.760;2023-02-16T13:26:12;4.70;99.90
70947;DHT22;58605;48.700;8.760;2023-02-16T13:32:08;4.70;99.90
70947;DHT22;58605;48.700;8.760;2023-02-16T13:34:46;4.80;99.90
70947;DHT22;58605;48.700;8.760;2023-02-16T13:37:25;4.80;99.90
70947;DHT22;58605;48.700;8.760;2023-02-16T13:40:13;4.90;99.90
70947;DHT22;58605;48.700;8.760;2023-02-16T13:42:57;5.10;99.90
70947;DHT22;58605;48.700;8.760;2023-02-16T13:45:26;4.90;99.90
70947;DHT22;58605;48.700;8.760;2023-02-16T13:47:53;4.90;99.90
70947;DHT22;58605;48.700;8.760;2023-02-16T13:50:27;4.80;99.90
70947;DHT22;58605;48.700;8.760;2023-02-16T13:52:55;4.70;99.90
70947;DHT22;58605;48.700;8.760;2023-02-16T13:55:24;4.70;99.90
70947;DHT22;58605;48.700;8.760;2023-02-16T13:58:04;4.70;99.90
70947;DHT22;58605;48.700;8.760;2023-02-16T14:00:33;4.80;99.90
70947;DHT22;58605;48.700;8.760;2023-02-16T14:03:02;4.80;99.90
70947;DHT22;58605;48.700;8.760;2023-02-16T14:05:34;4.90;99.90
70947;DHT22;58605;48.700;8.760;2023-02-16T14:08:22;4.80;99.90
70947;DHT22;58605;48.700;8.760;2023-02-16T14:11:11;4.70;99.90
70947;DHT22;58605;48.700;8.760;2023-02-16T14:13:48;4.80;99.90
70947;DHT22;58605;48.700;8.760;2023-02-16T14:16:29;4.80;99.90
70947;DHT22;58605;48.700;8.760;2023-02-16T14:18:58;4.90;99.90
70947;DHT22;58605;48.700;8.760;2023-02-16T14:21:31;4.80;99.90
70947;DHT22;58605;48.700;8.760;2023-02-16T14:24:01;4.90;99.90
70947;DHT22;58605;48.700;8.760;2023-02-16T14:26:29;4.80;99.90
70947;DHT22;58605;48.700;8.760;2023-02-16T14:29:09;4.90;99.90
70947;DHT22;58605;48.700;8.760;2023-02-16T14:31:44;5.00;99.90
70947;DHT22;58605;48.700;8.760;2023-02-16T14:34:16;5.00;99.90
70947;DHT22;58605;48.700;8.760;2023-02-16T14:39:47;5.10;99.90
70947;DHT22;58605;48.700;8.760;2023-02-16T14:42:15;5.00;99.90
70947;DHT22;58605;48.700;8.760;2023-02-16T14:45:02;5.10;99.90
70947;DHT22;58605;48.700;8.760;2023-02-16T14:47:38;5.10;99.90
70947;DHT22;58605;48.700;8.760;2023-02-16T14:50:22;5.10;99.90
70947;DHT22;58605;48.700;8.760;2023-02-16T14:58:55;4.90;99.90
70947;DHT22;58605;48.700;8.760;2023-02-16T15:01:26;5.00;99.90
70947;DHT22;58605;48.700;8.760;2023-02-16T15:03:54;5.10;99.90
70947;DHT22;58605;48.700;8.760;2023-02-16T15:06:25;5.00;99.90
70947;DHT22;58605;48.700;8.760;2023-02-16T15:08:56;5.10;99.90
70947;DHT22;58605;48.700;8.760;2023-02-16T15:11:29;5.20;99.90
70947;DHT22;58605;48.700;8.760;2023-02-16T15:14:02;5.40;99.90
70947;DHT22;58605;48.700;8.760;2023-02-16T15:16:31;5.50;99.70
70947;DHT22;58605;48.700;8.760;2023-02-16T15:19:02;5.30;99.90
70947;DHT22;58605;48.700;8.760;2023-02-16T15:21:30;5.30;99.90
70947;DHT22;58605;48.700;8.760;2023-02-16T15:23:57;5.10;99.90
70947;DHT22;58605;48.700;8.760;2023-02-16T15:26:25;5.20;99.90
70947;DHT22;58605;48.700;8.760;2023-02-16T15:28:53;5.10;99.90
70947;DHT22;58605;48.700;8.760;2023-02-16T15:31:29;5.10;99.90
70947;DHT22;58605;48.700;8.760;2023-02-16T15:33:59;5.00;99.90
70947;DHT22;58605;48.700;8.760;2023-02-16T15:36:31;5.10;99.90
70947;DHT22;58605;48.700;8.760;2023-02-16T15:39:00;5.20;99.90
70947;DHT22;58605;48.700;8.760;2023-02-16T15:41:28;5.10;99.90
70947;DHT22;58605;48.700;8.760;2023-02-16T15:43:55;5.20;99.90
70947;DHT22;58605;48.700;8.760;2023-02-16T15:46:24;5.20;99.90
70947;DHT22;58605;48.700;8.760;2023-02-16T15:48:53;5.20;99.90
70947;DHT22;58605;48.700;8.760;2023-02-16T15:51:25;5.20;99.90
70947;DHT22;58605;48.700;8.760;2023-02-16T15:53:53;5.20;99.90
70947;DHT22;58605;48.700;8.760;2023-02-16T15:56:36;5.20;99.90
70947;DHT22;58605;48.700;8.760;2023-02-16T15:59:14;5.20;99.90
70947;DHT22;58605;48.700;8.760;2023-02-16T16:01:41;5.30;99.90
70947;DHT22;58605;48.700;8.760;2023-02-16T16:04:18;5.20;99.90
70947;DHT22;58605;48.700;8.760;2023-02-16T16:06:47;5.20;99.90
70947;DHT22;58605;48.700;8.760;2023-02-16T16:09:20;5.30;99.90
70947;DHT22;58605;48.700;8.760;2023-02-16T16:11:48;5.20;99.90
70947;DHT22;58605;48.700;8.760;2023-02-16T16:14:15;5.30;99.90
70947;DHT22;58605;48.700;8.760;2023-02-16T16:16:43;5.30;99.90
70947;DHT22;58605;48.700;8.760;2023-02-16T16:19:14;5.30;99.90
70947;DHT22;58605;48.700;8.760;2023-02-16T16:21:48;5.40;99.90
70947;DHT22;58605;48.700;8.760;2023-02-16T16:24:28;5.40;99.90